Aeroporto :
LOGIN :

Iscrizione | Disclaimer

   EN    FR    IT 

 










Sommario :    VFR   VFR Marginale   IFR   IFR Intensivo   IFR Molto Intensivo
Visibilità : 
Base nubi : 
>= 8 km
>= 3000ft
5 / 8 km
1000 / 3000 ft
1500m / 5 km
500 / 1000 ft
800 / 1500m
200 / 500 ft
< 800m
< 200 ft
Simboli :   Temporali  Nebbia  Neve Forte  Precipitazioni Forti  Vento > 20 kt
SIGMETs :   Varie  Temporali  Ghiacco  Turbolenza  Onda orograficha  Ceneri Vulcaniche







- Altitudine del aeroporto : 697 ft
- Codice IATA : PEG


LIRZ - San Edigio Perugia

ULTIMO METAR :
  • 211750Z 02010KT CAVOK 18/06 Q1014

METARs OBSOLETI :
  • 211650Z 03008KT CAVOK 20/06 Q1014
  • 211550Z 04012KT CAVOK 21/05 Q1015

TAF TAF LIRZ
Valido dal 21 a 18 ore il 22 a 18 ore UTC


211700Z 2118/2218 02010KT 9999 SCT030
TEMPO 2213/2218 RA
Nessun NOTAM noto per questo aeroporto.
2 SIGMETs conosciuti per la FIR Roma (LIRR) :
 
Turbolenza severa
LIRR SIGMET 5 VALID 211700/212100 LIIB
LIRR ROMA FIR SEV TURB FCST WI N4154 E00943 - N4131 E01022 - N4026 E01201 - N3853 E01424 - N3630 E01626 - N3631 E01128 - N3728 E01131 - N3900 E00758 - N4055 E00757 - N4118 E00816 - N4119 E00945 - N4154 E00943 FL270/370 STNR NC=
Turbolenza severa
LIRR SIGMET 4 VALID 211700/212100 LIIB
LIRR ROMA FIR SEV TURB FCST WI N4154 E00943 - N4131 E01022 - N4026 E01201 - N3853 E01424 - N3630 E01626 - N3631 E01128 - N3728 E01131 - N3900 E00758 - N4055 E00757 - N4118 E00816 - N4119 E00945 - N4154 E00943 SFC/FL080 STNR NC=



MetMap, La meteo Aeronautica in un colpo d'occhio ! - Copyright ORBIFLY Dicembre 2007 - Disclaimer

ORBIFLY MET'MAP TEAM :

Programmazione e sviluppo : Alexandra Zaïnal
Concezione e sviluppo : Baudouin d'Aumeries
Co-Programmazione e sviluppo : Marc-Olivier Méhu
Supporto tecnico e logistico : Manuel Goepfert
Aiuto per la traduzione : Arnaldo La Scala

Contatto : metmap@orbifly.com




FONTI E CREDITI :

   NOAA